Time;durP1;ratioP1;P1;durP2;ratioP2;P2;SDS_P1;SDS_P2;PMS_P1;PMS_P2;Temp;Humidity;BMP_temperature;BMP_pressure;BME280_temperature;BME280_humidity;BME280_pressure;Samples;Min_cycle;Max_cycle;Signal;HPM_P1;HPM_P2
2023/11/28 00:01:46;;;;;;;;;1.00;1.00;;;;;10.20;83.49;99594.72;5099051;27;46694;-60
2023/11/28 00:04:11;;;;;;;;;1.00;1.00;;;;;10.28;83.87;99602.38;5099150;27;46263;-60
2023/11/28 00:06:37;;;;;;;;;1.00;1.00;;;;;10.25;83.95;99591.84;5098478;27;49348;-60
2023/11/28 00:09:03;;;;;;;;;3.75;1.00;;;;;10.22;83.93;99586.66;5099641;27;45227;-60
2023/11/28 00:11:28;;;;;;;;;1.75;1.00;;;;;10.28;83.90;99594.38;5100950;27;45451;-60
2023/11/28 00:13:54;;;;;;;;;0.50;0.50;;;;;10.22;83.63;99586.66;5102791;27;45867;-60
2023/11/28 00:16:19;;;;;;;;;1.00;1.00;;;;;10.26;83.65;99598.06;5102747;27;45333;-60
2023/11/28 00:18:45;;;;;;;;;2.00;2.00;;;;;10.24;83.46;99599.91;5102803;27;45255;-60
2023/11/28 00:21:11;;;;;;;;;1.00;1.00;;;;;10.19;83.83;99614.34;5102590;27;45566;-60
2023/11/28 00:23:37;;;;;;;;;2.50;2.50;;;;;10.09;84.17;99591.75;5102700;27;46403;-60
2023/11/28 00:26:02;;;;;;;;;2.00;1.50;;;;;10.15;83.87;99606.56;5102213;27;45411;-60
2023/11/28 00:28:27;;;;;;;;;4.00;3.00;;;;;10.14;83.72;99610.16;5102732;27;45769;-60
2023/11/28 00:30:53;;;;;;;;;1.00;1.00;;;;;10.08;83.91;99610.50;5098269;27;45322;-60
2023/11/28 00:33:18;;;;;;;;;1.50;1.50;;;;;10.11;84.14;99616.53;5099913;27;45375;-60
2023/11/28 00:35:44;;;;;;;;;2.00;2.00;;;;;10.04;84.50;99608.88;5100739;27;45330;-60
2023/11/28 00:38:09;;;;;;;;;1.00;1.00;;;;;10.06;84.20;99612.38;5102333;27;45430;-60
2023/11/28 00:40:35;;;;;;;;;1.00;1.00;;;;;10.11;84.06;99619.19;5101685;27;45417;-60
2023/11/28 00:43:00;;;;;;;;;2.00;2.00;;;;;10.01;83.79;99607.25;5089192;27;46141;-60
2023/11/28 00:45:26;;;;;;;;;2.00;1.50;;;;;9.94;84.19;99598.69;5102254;27;45562;-60
2023/11/28 00:47:52;;;;;;;;;1.25;1.25;;;;;9.98;84.03;99615.41;5101036;27;45324;-60
2023/11/28 00:50:18;;;;;;;;;2.25;1.50;;;;;9.99;83.93;99610.00;5100927;27;45512;-60
2023/11/28 00:52:47;;;;;;;;;2.00;2.00;;;;;10.02;83.89;99616.97;5101991;27;46833;-60
2023/11/28 00:55:14;;;;;;;;;2.00;2.00;;;;;9.97;84.23;99609.22;5101902;27;45652;-60
2023/11/28 00:57:40;;;;;;;;;3.00;3.00;;;;;10.06;84.42;99626.56;5101196;27;45350;-60
2023/11/28 01:00:09;;;;;;;;;2.75;2.00;;;;;10.08;83.46;99624.69;5102047;27;45373;-60
2023/11/28 01:02:35;;;;;;;;;1.00;1.00;;;;;10.07;84.02;99619.41;5101771;27;46458;-60
2023/11/28 01:05:00;;;;;;;;;3.50;2.00;;;;;9.91;83.43;99596.16;5101898;27;45364;-60
2023/11/28 01:07:25;;;;;;;;;1.00;1.00;;;;;10.00;83.55;99618.84;5101743;27;51957;-60
2023/11/28 01:09:52;;;;;;;;;2.00;2.00;;;;;10.06;83.64;99633.69;5100864;27;52022;-60
2023/11/28 01:12:17;;;;;;;;;1.00;1.00;;;;;10.01;83.30;99633.91;5100694;27;47201;-60
2023/11/28 01:14:43;;;;;;;;;3.00;1.00;;;;;9.93;83.17;99628.09;5101485;27;45459;-60
2023/11/28 01:17:08;;;;;;;;;1.50;1.00;;;;;10.06;83.04;99645.22;5101594;27;52962;-60
2023/11/28 01:19:34;;;;;;;;;2.00;1.00;;;;;9.95;83.51;99656.38;5100154;27;59840;-60
2023/11/28 01:22:01;;;;;;;;;1.00;1.00;;;;;10.00;83.41;99665.03;5089580;27;46036;-60
2023/11/28 01:24:26;;;;;;;;;0.50;0.50;;;;;9.93;82.43;99657.41;5101167;27;45299;-60
2023/11/28 01:26:52;;;;;;;;;1.00;1.00;;;;;9.92;83.36;99659.22;5101784;27;45424;-60
2023/11/28 01:29:18;;;;;;;;;1.00;1.00;;;;;9.86;83.06;99650.66;5101170;27;52877;-60
2023/11/28 01:31:43;;;;;;;;;1.00;1.00;;;;;9.97;83.07;99675.84;5101320;27;45358;-60
2023/11/28 01:34:08;;;;;;;;;1.25;1.00;;;;;9.91;83.21;99660.13;5101587;27;45365;-60
2023/11/28 01:36:34;;;;;;;;;1.25;1.25;;;;;9.89;83.44;99659.34;5089074;27;45283;-60
2023/11/28 01:38:59;;;;;;;;;1.25;1.00;;;;;9.88;82.89;99665.59;5101498;27;45598;-60
2023/11/28 01:41:24;;;;;;;;;0.50;0.50;;;;;9.88;83.32;99664.75;5092807;27;45275;-60
2023/11/28 01:43:49;;;;;;;;;1.00;1.00;;;;;9.92;83.02;99674.31;5094777;27;57823;-60
2023/11/28 01:46:15;;;;;;;;;1.00;1.00;;;;;9.89;83.01;99670.00;5100556;27;60776;-60
2023/11/28 01:48:41;;;;;;;;;2.00;2.00;;;;;9.99;82.81;99683.78;5101141;27;45254;-60
2023/11/28 01:51:07;;;;;;;;;2.00;1.00;;;;;9.98;82.87;99685.56;5101167;27;45516;-60
2023/11/28 01:53:34;;;;;;;;;1.00;1.00;;;;;9.98;82.79;99690.91;5098593;27;45309;-60
2023/11/28 01:56:00;;;;;;;;;2.00;2.00;;;;;10.01;82.61;99693.41;5101257;27;45442;-60
2023/11/28 01:58:27;;;;;;;;;3.50;1.50;;;;;10.05;82.18;99695.94;5101196;27;45434;-60
2023/11/28 02:00:52;;;;;;;;;1.50;1.50;;;;;9.98;82.34;99682.91;5111482;27;48235;-60
2023/11/28 02:03:18;;;;;;;;;2.25;1.25;;;;;10.07;82.78;99702.94;5099382;27;45426;-60
2023/11/28 02:05:43;;;;;;;;;1.00;0.75;;;;;10.07;82.10;99702.06;5101088;27;45566;-60
2023/11/28 02:08:10;;;;;;;;;2.00;2.00;;;;;10.06;82.55;99708.34;5101161;27;45444;-60
2023/11/28 02:10:38;;;;;;;;;2.75;2.75;;;;;10.05;82.47;99706.63;5095159;27;45982;-60
2023/11/28 02:13:06;;;;;;;;;2.00;2.00;;;;;9.99;82.15;99710.44;5095546;27;45411;-60
2023/11/28 02:15:45;;;;;;;;;4.00;2.25;;;;;10.01;82.78;99719.22;5100552;27;45317;-60
2023/11/28 02:18:12;;;;;;;;;3.00;3.00;;;;;10.01;82.23;99716.56;5098291;27;45467;-60
2023/11/28 02:20:39;;;;;;;;;2.50;1.50;;;;;9.97;82.61;99715.84;5100769;27;46229;-60
2023/11/28 02:23:05;;;;;;;;;3.25;2.75;;;;;9.96;82.57;99707.91;5100680;27;45598;-60
2023/11/28 02:25:45;;;;;;;;;4.50;2.75;;;;;9.93;82.33;99702.72;5100661;27;45381;-60
2023/11/28 02:28:16;;;;;;;;;2.50;2.50;;;;;9.97;83.02;99712.28;5087435;27;45307;-60
2023/11/28 02:30:45;;;;;;;;;2.00;2.00;;;;;10.01;82.59;99728.09;5100163;27;45321;-60
2023/11/28 02:33:10;;;;;;;;;4.25;3.25;;;;;9.96;82.64;99724.78;5100420;27;45654;-60
2023/11/28 02:35:36;;;;;;;;;3.00;2.00;;;;;9.91;82.46;99710.78;5099852;27;52547;-60
2023/11/28 02:38:01;;;;;;;;;3.00;3.00;;;;;9.97;82.35;99725.63;5100612;27;45562;-60
2023/11/28 02:40:26;;;;;;;;;4.00;4.00;;;;;9.91;82.12;99713.47;5099349;27;53450;-60
2023/11/28 02:42:51;;;;;;;;;3.00;3.00;;;;;9.97;82.07;99720.28;5086753;27;45383;-60
2023/11/28 02:45:17;;;;;;;;;3.00;3.00;;;;;9.92;82.59;99715.19;5099641;27;63869;-60
2023/11/28 02:47:42;;;;;;;;;1.50;1.00;;;;;10.01;82.01;99735.22;5100043;27;45330;-60
2023/11/28 02:50:08;;;;;;;;;6.50;4.25;;;;;9.84;82.39;99706.69;5099996;27;62796;-60
2023/11/28 02:52:33;;;;;;;;;4.25;3.00;;;;;10.04;82.19;99739.53;5098098;27;45310;-60
2023/11/28 02:54:59;;;;;;;;;5.50;4.25;;;;;9.99;81.68;99732.63;5099426;27;47771;-60
2023/11/28 02:57:24;;;;;;;;;4.00;3.75;;;;;10.01;81.48;99744.09;5100144;27;45372;-60
2023/11/28 02:59:49;;;;;;;;;4.75;3.25;;;;;9.94;81.70;99731.97;5099839;27;56354;-60
2023/11/28 03:02:14;;;;;;;;;4.50;4.00;;;;;9.97;81.66;99731.84;5099353;27;58729;-60
2023/11/28 03:04:40;;;;;;;;;4.50;1.50;;;;;9.93;81.58;99710.72;5100046;27;45569;-60
2023/11/28 03:07:05;;;;;;;;;3.50;3.50;;;;;10.01;81.99;99746.75;5091171;27;47047;-60
2023/11/28 03:09:30;;;;;;;;;4.00;4.00;;;;;9.93;82.01;99730.22;5099546;27;59850;-60
2023/11/28 03:11:56;;;;;;;;;4.75;4.00;;;;;10.02;81.86;99755.59;5099945;27;45353;-60
2023/11/28 03:14:23;;;;;;;;;3.00;1.75;;;;;9.97;81.68;99750.50;5100261;27;45425;-60
2023/11/28 03:16:49;;;;;;;;;4.00;4.00;;;;;10.02;81.97;99756.50;5099380;27;45340;-60
2023/11/28 03:19:16;;;;;;;;;7.25;5.00;;;;;9.93;81.64;99751.56;5099953;27;46936;-60
2023/11/28 03:21:41;;;;;;;;;4.75;4.75;;;;;9.92;81.56;99747.19;5099817;27;45370;-60
2023/11/28 03:24:07;;;;;;;;;5.00;4.25;;;;;10.02;81.84;99769.81;5099935;27;45330;-60
2023/11/28 03:26:33;;;;;;;;;3.25;3.25;;;;;10.04;81.73;99768.88;5099644;27;45368;-60
2023/11/28 03:28:58;;;;;;;;;3.75;3.75;;;;;9.92;82.38;99762.28;5099202;27;55165;-60
2023/11/28 03:31:23;;;;;;;;;5.00;3.75;;;;;9.96;82.44;99775.41;5099382;27;45403;-60
2023/11/28 03:33:48;;;;;;;;;4.50;3.25;;;;;9.96;82.37;99772.75;5099738;27;45356;-60
2023/11/28 03:36:17;;;;;;;;;2.75;2.00;;;;;9.92;82.38;99776.50;5097915;27;58269;-60
2023/11/28 03:38:47;;;;;;;;;3.00;3.00;;;;;9.92;82.69;99788.94;5096801;27;46170;-60
2023/11/28 03:41:12;;;;;;;;;2.00;2.00;;;;;9.89;83.42;99794.41;5080166;27;45685;-60
2023/11/28 03:43:37;;;;;;;;;3.00;3.00;;;;;9.81;83.67;99787.63;5091562;27;57792;-60
2023/11/28 03:46:03;;;;;;;;;3.00;3.00;;;;;9.85;83.72;99799.03;5097797;27;63478;-60
2023/11/28 03:48:28;;;;;;;;;6.25;4.00;;;;;9.71;83.77;99780.97;5099331;27;45440;-60
2023/11/28 03:50:53;;;;;;;;;2.00;2.00;;;;;9.74;83.45;99791.50;5098660;27;63678;-60
2023/11/28 03:53:19;;;;;;;;;3.25;2.00;;;;;9.79;83.68;99801.97;5097027;27;45442;-60
2023/11/28 03:55:44;;;;;;;;;5.00;5.00;;;;;9.76;83.93;99802.09;5097674;27;45601;-60
2023/11/28 03:58:09;;;;;;;;;3.75;3.00;;;;;9.75;84.16;99813.69;5098600;27;68641;-60
2023/11/28 04:00:35;;;;;;;;;4.00;4.00;;;;;9.73;84.11;99816.41;5099205;27;45455;-60
2023/11/28 04:03:00;;;;;;;;;4.50;2.25;;;;;9.77;84.47;99818.03;5099152;27;45337;-60
2023/11/28 04:05:25;;;;;;;;;4.00;3.25;;;;;9.79;84.20;99821.50;5097158;27;63900;-60
2023/11/28 04:07:51;;;;;;;;;3.00;3.00;;;;;9.80;84.50;99815.22;5097626;27;46902;-60
2023/11/28 04:10:16;;;;;;;;;4.75;3.75;;;;;9.80;84.17;99833.00;5098083;27;45302;-60
2023/11/28 04:12:41;;;;;;;;;7.50;3.00;;;;;9.70;84.42;99816.56;5098911;27;54956;-60
2023/11/28 04:15:07;;;;;;;;;4.75;4.00;;;;;9.82;84.13;99840.03;5098933;27;45270;-60
2023/11/28 04:17:33;;;;;;;;;4.75;4.00;;;;;9.82;84.58;99840.03;5098908;27;46308;-60
2023/11/28 04:19:58;;;;;;;;;3.00;3.00;;;;;9.81;84.65;99846.28;5097994;27;45352;-60
2023/11/28 04:22:24;;;;;;;;;4.75;4.00;;;;;9.80;84.36;99847.19;5089309;27;45341;-60
2023/11/28 04:24:49;;;;;;;;;2.25;2.25;;;;;9.72;84.15;99844.03;5097880;27;45542;-60
2023/11/28 04:27:15;;;;;;;;;3.50;2.25;;;;;9.77;83.66;99851.78;5098766;27;56355;-60
2023/11/28 04:29:40;;;;;;;;;2.00;2.00;;;;;9.70;84.31;99845.88;5098609;27;45295;-60
2023/11/28 04:32:05;;;;;;;;;4.00;3.75;;;;;9.62;83.97;99835.56;5098887;27;45219;-60
2023/11/28 04:34:31;;;;;;;;;4.00;2.00;;;;;9.76;84.11;99853.59;5099022;27;45335;-60
2023/11/28 04:36:56;;;;;;;;;4.50;3.25;;;;;9.81;83.47;99854.28;5097289;27;46049;-60
2023/11/28 04:39:22;;;;;;;;;2.00;2.00;;;;;9.78;84.07;99850.88;5098756;27;45533;-60
2023/11/28 04:41:47;;;;;;;;;3.50;1.50;;;;;9.77;83.51;99860.69;5096092;27;45414;-60
2023/11/28 04:44:13;;;;;;;;;2.00;2.00;;;;;9.53;83.72;99819.09;5098376;27;53695;-60
2023/11/28 04:46:38;;;;;;;;;7.00;2.00;;;;;9.79;83.81;99869.47;5098153;27;46293;-60
2023/11/28 04:49:03;;;;;;;;;4.00;3.50;;;;;9.79;82.82;99869.47;5095113;27;45470;-60
2023/11/28 04:51:29;;;;;;;;;2.75;2.75;;;;;9.69;82.96;99865.47;5089190;27;45533;-60
2023/11/28 04:53:54;;;;;;;;;4.00;2.25;;;;;9.70;83.12;99867.19;5096063;27;45314;-60
2023/11/28 04:56:19;;;;;;;;;2.75;2.00;;;;;9.63;83.21;99866.56;5097086;27;46233;-60
2023/11/28 04:58:45;;;;;;;;;1.75;1.25;;;;;9.70;82.74;99896.50;5101328;27;45405;-60
2023/11/28 05:01:10;;;;;;;;;3.25;2.00;;;;;9.63;83.45;99890.56;5089308;27;63972;-60
2023/11/28 05:03:36;;;;;;;;;4.75;2.75;;;;;9.72;82.74;99901.75;5098101;27;66775;-60
2023/11/28 05:06:01;;;;;;;;;2.00;2.00;;;;;9.73;83.44;99898.19;5088449;27;47019;-60
2023/11/28 05:08:26;;;;;;;;;2.50;2.50;;;;;9.71;82.92;99905.38;5099139;27;45299;-60
2023/11/28 05:10:51;;;;;;;;;2.00;2.00;;;;;9.72;82.42;99905.31;5101693;27;53098;-60
2023/11/28 05:13:17;;;;;;;;;1.25;1.00;;;;;9.39;81.78;99863.16;5101642;27;47948;-60
2023/11/28 05:15:42;;;;;;;;;2.25;2.25;;;;;9.57;82.28;99900.59;5101085;27;61321;-60
2023/11/28 05:18:07;;;;;;;;;3.00;1.25;;;;;9.63;81.92;99919.88;5100806;27;68845;-60
2023/11/28 05:20:33;;;;;;;;;0.75;0.00;;;;;9.56;81.98;99914.88;5101925;27;45404;-60
2023/11/28 05:22:59;;;;;;;;;2.00;1.00;;;;;9.63;81.95;99930.53;5101661;27;45472;-60
2023/11/28 05:25:24;;;;;;;;;3.75;2.00;;;;;9.50;82.40;99900.00;5101340;27;45433;-60
2023/11/28 05:27:51;;;;;;;;;2.00;2.00;;;;;9.60;82.19;99935.13;5101520;27;45941;-60
2023/11/28 05:30:16;;;;;;;;;2.00;2.00;;;;;9.50;82.74;99931.97;5101341;27;45759;-60
2023/11/28 05:32:42;;;;;;;;;3.00;2.00;;;;;9.62;82.71;99957.25;5101280;27;45388;-60
2023/11/28 05:35:08;;;;;;;;;2.75;2.00;;;;;9.63;82.13;99974.97;5100274;27;46113;-60
2023/11/28 05:37:34;;;;;;;;;2.00;2.00;;;;;9.56;81.24;99966.38;5101253;27;45576;-60
2023/11/28 05:39:59;;;;;;;;;1.00;1.00;;;;;9.54;81.82;99970.00;5101757;27;45396;-60
2023/11/28 05:42:26;;;;;;;;;2.75;2.50;;;;;9.50;80.42;99979.91;5085643;27;63794;-60
2023/11/28 05:44:51;;;;;;;;;2.75;2.75;;;;;9.46;81.21;99987.16;5101100;27;45554;-60
2023/11/28 05:47:18;;;;;;;;;3.00;3.00;;;;;9.48;81.51;99999.56;5101229;27;45357;-60
2023/11/28 05:49:43;;;;;;;;;4.50;3.25;;;;;9.51;80.37;100000.31;5101716;27;45330;-60
2023/11/28 05:52:09;;;;;;;;;2.50;2.50;;;;;9.49;80.86;100018.16;5101021;27;45597;-60
2023/11/28 05:54:34;;;;;;;;;2.25;2.25;;;;;9.50;79.97;100027.03;5098589;27;45516;-60
2023/11/28 05:56:59;;;;;;;;;1.00;0.00;;;;;9.52;79.99;100030.47;5101015;27;45259;-60
2023/11/28 05:59:25;;;;;;;;;2.00;2.00;;;;;9.48;79.77;100037.72;5101613;27;45397;-60
2023/11/28 06:02:03;;;;;;;;;4.00;3.00;;;;;9.37;79.64;100031.94;5099865;27;65427;-60
2023/11/28 06:04:31;;;;;;;;;6.00;6.00;;;;;9.47;78.58;100043.97;5100219;27;46061;-60
2023/11/28 06:06:57;;;;;;;;;8.00;6.25;;;;;9.49;78.71;100050.13;5100738;27;45694;-60
2023/11/28 06:09:24;;;;;;;;;3.25;3.25;;;;;9.46;78.13;100044.91;5100807;27;45358;-60
2023/11/28 06:11:52;;;;;;;;;5.50;5.25;;;;;9.39;78.69;100052.28;5100501;27;45453;-60
2023/11/28 06:14:18;;;;;;;;;4.50;4.50;;;;;9.42;77.63;100056.59;5101271;27;45558;-60
2023/11/28 06:16:43;;;;;;;;;5.00;5.00;;;;;9.37;77.88;100056.81;5100565;27;45335;-60
2023/11/28 06:19:09;;;;;;;;;5.25;5.25;;;;;9.33;78.66;100049.84;5101075;27;45411;-60
2023/11/28 06:21:35;;;;;;;;;4.00;4.00;;;;;9.34;78.61;100050.69;5100294;27;45432;-60
2023/11/28 06:24:00;;;;;;;;;6.00;3.50;;;;;9.46;78.03;100071.56;5100573;27;46488;-60
2023/11/28 06:26:26;;;;;;;;;4.00;4.00;;;;;9.45;78.28;100088.47;5100495;27;45339;-60
2023/11/28 06:28:51;;;;;;;;;4.25;4.00;;;;;9.43;77.38;100087.66;5100931;27;45254;-60
2023/11/28 06:31:16;;;;;;;;;5.75;4.00;;;;;9.37;77.92;100082.56;5100397;27;45418;-60
2023/11/28 06:33:42;;;;;;;;;7.25;7.25;;;;;9.48;78.02;100104.34;5094779;27;46168;-60
2023/11/28 06:36:08;;;;;;;;;5.50;5.50;;;;;9.45;76.78;100105.34;5093487;27;45551;-60
2023/11/28 06:38:33;;;;;;;;;5.75;5.75;;;;;9.24;76.43;100095.50;5100801;27;45306;-60
2023/11/28 06:40:58;;;;;;;;;7.50;7.00;;;;;9.16;76.54;100090.44;5095357;27;70203;-60
2023/11/28 06:43:24;;;;;;;;;8.00;6.75;;;;;9.15;76.27;100107.31;5089786;27;65217;-60
2023/11/28 06:45:49;;;;;;;;;7.75;7.75;;;;;9.18;76.52;100127.66;5100095;27;45265;-60
2023/11/28 06:48:15;;;;;;;;;7.25;7.00;;;;;9.12;76.68;100127.88;5100307;27;45459;-60
2023/11/28 06:50:40;;;;;;;;;7.00;7.00;;;;;9.16;76.73;100133.03;5099443;27;64266;-60
2023/11/28 06:53:05;;;;;;;;;7.00;7.00;;;;;9.12;76.29;100130.53;5100259;27;45352;-60
2023/11/28 06:55:31;;;;;;;;;8.25;8.00;;;;;9.02;75.93;100125.56;5099319;27;60745;-59
2023/11/28 06:57:56;;;;;;;;;8.00;6.25;;;;;9.02;75.95;100138.88;5099692;27;60104;-61
2023/11/28 07:00:21;;;;;;;;;9.50;8.00;;;;;9.03;76.33;100145.06;5098026;27;46391;-61
2023/11/28 07:02:47;;;;;;;;;7.75;7.75;;;;;9.08;76.01;100145.75;5097203;27;46032;-61
2023/11/28 07:05:12;;;;;;;;;7.00;7.00;;;;;9.08;75.64;100151.94;5098137;27;45568;-61
2023/11/28 07:07:38;;;;;;;;;8.00;8.00;;;;;8.90;74.96;100125.97;5098757;27;45846;-61
2023/11/28 07:10:08;;;;;;;;;9.25;9.00;;;;;8.94;76.22;100140.03;5099991;27;45539;-61
2023/11/28 07:12:33;;;;;;;;;9.50;9.00;;;;;8.86;75.58;100135.88;5097554;27;48271;-61
2023/11/28 07:14:59;;;;;;;;;9.25;9.25;;;;;8.88;75.89;100144.66;5099566;27;45329;-60
2023/11/28 07:17:26;;;;;;;;;7.75;5.50;;;;;8.94;75.94;100167.56;5099819;27;45242;-59
2023/11/28 07:19:51;;;;;;;;;10.00;8.00;;;;;8.92;75.79;100180.03;5077929;27;45325;-59
2023/11/28 07:22:16;;;;;;;;;8.00;7.50;;;;;8.83;76.22;100175.88;5094034;27;46374;-59
2023/11/28 07:24:42;;;;;;;;;12.00;9.25;;;;;8.93;76.33;100189.75;5098085;27;45949;-60
2023/11/28 07:27:07;;;;;;;;;10.25;10.25;;;;;8.55;75.45;100140.50;5097538;27;45561;-60
2023/11/28 07:29:32;;;;;;;;;10.25;10.00;;;;;8.89;75.53;100202.31;5097041;27;45475;-60
2023/11/28 07:31:58;;;;;;;;;11.25;11.25;;;;;8.88;75.19;100195.22;5097766;27;45363;-60
2023/11/28 07:34:23;;;;;;;;;10.25;8.50;;;;;8.83;75.53;100196.31;5099045;27;61127;-59
2023/11/28 07:36:51;;;;;;;;;12.25;10.50;;;;;8.76;75.89;100193.00;5097304;27;45383;-60
2023/11/28 07:39:17;;;;;;;;;8.00;8.00;;;;;8.84;75.93;100195.41;5089016;27;45560;-60
2023/11/28 07:41:42;;;;;;;;;10.25;10.25;;;;;8.84;75.77;100198.94;5096104;27;45960;-60
2023/11/28 07:44:08;;;;;;;;;10.00;8.50;;;;;8.82;74.28;100206.09;5097101;27;45300;-60
2023/11/28 07:46:33;;;;;;;;;14.00;10.00;;;;;8.82;74.90;100219.41;5099015;27;45336;-60
2023/11/28 07:48:58;;;;;;;;;9.00;9.00;;;;;8.73;75.10;100219.69;5097318;27;45420;-60
2023/11/28 07:51:24;;;;;;;;;12.50;9.50;;;;;8.78;75.39;100239.03;5098771;27;52899;-60
2023/11/28 07:53:49;;;;;;;;;10.00;8.75;;;;;8.74;75.46;100223.22;5094223;27;45555;-59
2023/11/28 07:56:16;;;;;;;;;14.75;12.00;;;;;8.78;74.50;100249.69;5089596;27;45486;-60
2023/11/28 07:58:41;;;;;;;;;7.75;7.75;;;;;8.70;74.53;100241.97;5091831;27;45555;-59
2023/11/28 08:01:07;;;;;;;;;11.75;9.75;;;;;8.71;74.93;100262.31;5092301;27;45512;-60
2023/11/28 08:03:32;;;;;;;;;8.50;8.50;;;;;8.68;74.81;100262.41;5093320;27;45451;-60
2023/11/28 08:05:57;;;;;;;;;12.50;10.25;;;;;8.64;74.85;100258.13;5098481;27;45594;-60
2023/11/28 08:08:23;;;;;;;;;10.50;10.50;;;;;8.49;74.22;100254.16;5090376;27;45410;-60
2023/11/28 08:10:48;;;;;;;;;8.00;8.00;;;;;8.57;75.07;100266.34;5096962;27;45632;-60
2023/11/28 08:13:15;;;;;;;;;7.75;7.75;;;;;8.49;75.14;100258.63;5096386;27;46641;-60
2023/11/28 08:15:42;;;;;;;;;11.00;9.75;;;;;8.56;74.87;100267.28;5095561;27;45510;-60
2023/11/28 08:18:07;;;;;;;;;10.00;10.00;;;;;8.65;74.79;100288.25;5095980;27;46295;-60
2023/11/28 08:20:32;;;;;;;;;12.75;11.75;;;;;8.57;74.45;100280.53;5098092;27;45608;-60
2023/11/28 08:22:58;;;;;;;;;9.50;9.50;;;;;8.60;74.33;100299.03;5096882;27;45440;-60
2023/11/28 08:25:23;;;;;;;;;12.00;10.25;;;;;8.49;74.68;100291.41;5089096;27;62569;-60
2023/11/28 08:27:48;;;;;;;;;10.00;8.50;;;;;8.62;75.02;100314.97;5094330;27;45405;-60
2023/11/28 08:30:14;;;;;;;;;13.00;11.00;;;;;8.51;75.02;100297.53;5093028;27;46069;-60
2023/11/28 08:32:40;;;;;;;;;8.25;8.00;;;;;8.50;74.80;100301.16;5098648;27;45588;-60
2023/11/28 08:35:06;;;;;;;;;10.75;8.75;;;;;8.62;74.39;100333.59;5100700;27;45326;-60
2023/11/28 08:37:31;;;;;;;;;10.00;8.25;;;;;8.50;74.37;100317.09;5099763;27;45540;-60
2023/11/28 08:39:57;;;;;;;;;12.25;10.75;;;;;8.23;74.43;100280.66;5099518;27;45478;-60
2023/11/28 08:42:22;;;;;;;;;11.50;11.50;;;;;8.51;74.35;100339.25;5098993;27;45588;-60
2023/11/28 08:44:47;;;;;;;;;15.50;12.50;;;;;8.51;74.02;100344.56;5101931;27;45376;-60
2023/11/28 08:47:13;;;;;;;;;8.75;8.25;;;;;8.48;74.34;100349.97;5098955;27;45573;-60
2023/11/28 08:49:42;;;;;;;;;16.00;13.75;;;;;8.54;74.68;100360.44;5098749;27;45545;-60
2023/11/28 08:52:10;;;;;;;;;11.25;8.00;;;;;8.52;73.69;100365.81;5097835;27;45876;-60
2023/11/28 08:54:35;;;;;;;;;9.25;9.00;;;;;8.45;74.13;100361.59;5097462;27;45363;-60
2023/11/28 08:57:01;;;;;;;;;12.75;11.00;;;;;8.44;74.86;100365.16;5096551;27;45296;-61
2023/11/28 08:59:26;;;;;;;;;15.00;13.00;;;;;8.46;74.78;100368.63;5098803;27;45698;-60
2023/11/28 09:01:51;;;;;;;;;10.75;10.75;;;;;8.40;74.71;100354.63;5097497;27;46326;-60
2023/11/28 09:04:17;;;;;;;;;15.25;14.50;;;;;8.49;74.58;100370.34;5094432;27;45520;-60
2023/11/28 09:06:42;;;;;;;;;12.25;11.50;;;;;8.53;73.58;100379.97;5099386;27;55629;-60
2023/11/28 09:09:09;;;;;;;;;13.00;10.00;;;;;8.45;73.97;100374.91;5103931;27;46054;-60
2023/11/28 09:11:34;;;;;;;;;8.75;8.75;;;;;8.53;74.43;100382.63;5108823;27;45388;-60
2023/11/28 09:13:59;;;;;;;;;11.75;11.00;;;;;8.44;73.89;100362.50;5098020;27;45524;-60
2023/11/28 09:16:25;;;;;;;;;12.25;12.00;;;;;8.51;74.38;100388.00;5097746;27;56764;-60
2023/11/28 09:18:51;;;;;;;;;11.25;11.25;;;;;8.49;74.01;100375.66;5092816;27;46259;-60
2023/11/28 09:21:16;;;;;;;;;8.25;7.75;;;;;8.51;73.52;100384.47;5097690;27;45402;-60
2023/11/28 09:23:42;;;;;;;;;11.75;10.50;;;;;8.42;73.34;100388.25;5100938;27;45514;-60
2023/11/28 09:26:07;;;;;;;;;8.50;8.00;;;;;8.31;73.74;100377.91;5099544;27;45591;-60
2023/11/28 09:28:37;;;;;;;;;12.50;12.00;;;;;8.39;73.61;100396.31;5099752;27;46522;-60
2023/11/28 09:31:02;;;;;;;;;17.50;14.00;;;;;8.41;74.35;100414.88;5098049;27;45787;-60
2023/11/28 09:33:28;;;;;;;;;10.25;9.75;;;;;8.40;73.58;100415.78;5095758;27;45462;-60
2023/11/28 09:35:53;;;;;;;;;13.75;13.75;;;;;8.23;74.01;100403.84;5097447;27;51138;-60
2023/11/28 09:38:19;;;;;;;;;13.00;13.00;;;;;8.31;74.11;100422.25;5098709;27;46252;-60
2023/11/28 09:40:44;;;;;;;;;9.75;9.25;;;;;8.32;74.72;100410.72;5093269;27;45396;-59
2023/11/28 09:43:10;;;;;;;;;12.00;8.25;;;;;8.40;74.36;100421.97;5090006;27;45419;-59
2023/11/28 09:45:40;;;;;;;;;13.00;12.00;;;;;8.39;74.05;100414.94;5098339;27;45798;-59
2023/11/28 09:48:09;;;;;;;;;12.75;11.25;;;;;8.46;74.43;100427.16;5106752;27;46830;-60
2023/11/28 09:50:35;;;;;;;;;14.00;13.75;;;;;8.49;73.49;100434.19;5099472;27;45393;-59
2023/11/28 09:53:02;;;;;;;;;11.00;11.00;;;;;8.48;73.89;100438.63;5095750;27;45558;-59
2023/11/28 09:55:29;;;;;;;;;12.50;10.75;;;;;8.49;73.73;100440.38;5099036;27;45571;-60
2023/11/28 09:57:56;;;;;;;;;10.00;8.25;;;;;8.55;73.48;100443.78;5096903;27;46993;-60
2023/11/28 10:00:22;;;;;;;;;10.50;10.50;;;;;8.60;74.14;100448.03;5096878;27;45402;-60
2023/11/28 10:02:50;;;;;;;;;13.50;10.00;;;;;8.59;73.60;100442.78;5093698;27;45585;-60
2023/11/28 10:05:17;;;;;;;;;13.00;11.00;;;;;8.61;73.70;100454.25;5089721;27;45540;-64
2023/11/28 10:07:45;;;;;;;;;13.50;11.50;;;;;8.52;72.68;100450.94;5096626;27;46874;-62
2023/11/28 10:10:12;;;;;;;;;12.00;12.00;;;;;8.62;73.01;100470.19;5097876;27;45676;-63
2023/11/28 10:12:38;;;;;;;;;12.75;9.00;;;;;8.65;72.77;100471.84;5097308;27;45497;-62
2023/11/28 10:15:07;;;;;;;;;12.75;11.25;;;;;8.68;73.16;100469.97;5085318;27;45562;-62
2023/11/28 10:17:33;;;;;;;;;11.75;11.75;;;;;8.67;72.88;100478.91;5088486;27;45560;-62
2023/11/28 10:20:05;;;;;;;;;11.75;11.25;;;;;8.62;72.30;100454.22;5087497;27;47544;-62
2023/11/28 10:22:30;;;;;;;;;9.00;8.75;;;;;8.68;72.53;100461.13;5093033;27;45629;-61
2023/11/28 10:24:56;;;;;;;;;12.00;9.00;;;;;8.66;72.78;100453.19;5097732;27;45513;-62
2023/11/28 10:27:22;;;;;;;;;10.50;10.25;;;;;8.78;72.25;100461.75;5097601;27;45438;-62
2023/11/28 10:29:48;;;;;;;;;13.00;10.25;;;;;8.87;72.08;100475.66;5098612;27;64830;-62
2023/11/28 10:32:13;;;;;;;;;10.75;10.00;;;;;8.86;72.18;100468.56;5098687;27;45344;-62
2023/11/28 10:34:39;;;;;;;;;9.25;8.00;;;;;8.87;72.27;100466.78;5098458;27;51055;-62
2023/11/28 10:37:06;;;;;;;;;9.00;8.00;;;;;8.83;72.22;100460.66;5096396;27;45466;-62
2023/11/28 10:39:32;;;;;;;;;11.75;11.50;;;;;8.87;72.04;100466.78;5098571;27;45377;-62
2023/11/28 10:41:57;;;;;;;;;12.50;10.75;;;;;8.85;72.22;100474.84;5098077;27;45441;-62
2023/11/28 10:44:25;;;;;;;;;10.00;10.00;;;;;8.85;72.29;100466.84;5097652;27;50147;-62
2023/11/28 10:46:56;;;;;;;;;9.75;9.25;;;;;9.00;71.99;100477.94;5097304;27;46146;-61
2023/11/28 10:49:22;;;;;;;;;9.00;9.00;;;;;8.99;71.62;100485.06;5094717;27;45647;-62
2023/11/28 10:51:48;;;;;;;;;11.25;8.75;;;;;8.80;71.10;100459.91;5098558;27;45728;-62
2023/11/28 10:54:16;;;;;;;;;11.00;9.75;;;;;8.86;71.12;100475.69;5093886;27;45569;-62
2023/11/28 10:56:47;;;;;;;;;11.50;9.75;;;;;8.93;71.75;100484.38;5098514;27;45745;-62
2023/11/28 10:59:35;;;;;;;;;11.50;10.00;;;;;8.97;71.90;100480.69;5094257;27;45816;-62
2023/11/28 11:02:03;;;;;;;;;12.00;11.00;;;;;9.00;71.83;100484.13;5084818;27;45430;-62
2023/11/28 11:04:29;;;;;;;;;15.25;14.50;;;;;9.01;71.35;100475.22;5097189;27;45412;-62
2023/11/28 11:06:55;;;;;;;;;12.75;9.50;;;;;9.10;71.61;100482.06;5097673;27;45618;-62
2023/11/28 11:09:24;;;;;;;;;9.50;9.50;;;;;9.11;70.96;100483.81;5093441;27;45396;-62
2023/11/28 11:11:51;;;;;;;;;8.25;8.25;;;;;9.09;71.24;100485.66;5081683;27;45569;-62
2023/11/28 11:14:56;;;;;;;;;10.25;10.25;;;;;9.08;70.74;100486.56;5092677;27;45368;-62
2023/11/28 11:17:37;;;;;;;;;14.25;12.50;;;;;9.05;70.89;100487.56;5097264;27;45515;-62
2023/11/28 11:20:07;;;;;;;;;10.50;9.00;;;;;9.04;71.71;100479.59;5090278;27;45433;-62
2023/11/28 11:22:36;;;;;;;;;11.75;11.75;;;;;9.09;71.34;100490.97;5092346;27;45702;-62
2023/11/28 11:25:03;;;;;;;;;12.75;11.25;;;;;9.04;71.85;100483.13;5090650;27;45452;-62
2023/11/28 11:27:29;;;;;;;;;10.00;9.00;;;;;9.07;71.16;100479.47;5098454;27;45496;-62